sensor_id;sensor_type;location;lat;lon;timestamp;P1;durP1;ratioP1;P2;durP2;ratioP2
48993;SDS011;34804;49.214;12.276;2022-12-10T00:02:11;38.78;;;20.10;;
48993;SDS011;34804;49.214;12.276;2022-12-10T00:04:38;38.08;;;19.05;;
48993;SDS011;34804;49.214;12.276;2022-12-10T00:07:04;35.10;;;17.40;;
48993;SDS011;34804;49.214;12.276;2022-12-10T00:09:31;42.10;;;20.38;;
48993;SDS011;34804;49.214;12.276;2022-12-10T00:11:58;41.42;;;20.63;;
48993;SDS011;34804;49.214;12.276;2022-12-10T00:14:25;41.25;;;20.52;;
48993;SDS011;34804;49.214;12.276;2022-12-10T00:16:52;45.45;;;21.38;;
48993;SDS011;34804;49.214;12.276;2022-12-10T00:19:19;42.35;;;20.92;;
48993;SDS011;34804;49.214;12.276;2022-12-10T00:21:45;36.30;;;17.88;;
48993;SDS011;34804;49.214;12.276;2022-12-10T00:24:12;33.70;;;17.83;;
48993;SDS011;34804;49.214;12.276;2022-12-10T00:26:39;37.47;;;18.00;;
48993;SDS011;34804;49.214;12.276;2022-12-10T00:29:07;33.10;;;17.50;;
48993;SDS011;34804;49.214;12.276;2022-12-10T00:31:36;38.17;;;18.88;;
48993;SDS011;34804;49.214;12.276;2022-12-10T00:34:04;36.40;;;18.80;;
48993;SDS011;34804;49.214;12.276;2022-12-10T00:36:35;39.53;;;17.73;;
48993;SDS011;34804;49.214;12.276;2022-12-10T00:39:04;36.60;;;17.65;;
48993;SDS011;34804;49.214;12.276;2022-12-10T00:41:32;37.53;;;18.67;;
48993;SDS011;34804;49.214;12.276;2022-12-10T00:43:59;33.83;;;18.13;;
48993;SDS011;34804;49.214;12.276;2022-12-10T00:46:26;39.33;;;18.70;;
48993;SDS011;34804;49.214;12.276;2022-12-10T00:48:52;39.85;;;20.08;;
48993;SDS011;34804;49.214;12.276;2022-12-10T00:51:20;42.92;;;19.90;;
48993;SDS011;34804;49.214;12.276;2022-12-10T00:53:50;38.13;;;18.70;;
48993;SDS011;34804;49.214;12.276;2022-12-10T00:56:19;40.80;;;18.50;;
48993;SDS011;34804;49.214;12.276;2022-12-10T00:58:48;41.20;;;20.40;;
48993;SDS011;34804;49.214;12.276;2022-12-10T01:03:45;40.78;;;19.40;;
48993;SDS011;34804;49.214;12.276;2022-12-10T01:06:14;41.28;;;19.48;;
48993;SDS011;34804;49.214;12.276;2022-12-10T01:08:46;44.95;;;21.88;;
48993;SDS011;34804;49.214;12.276;2022-12-10T01:11:15;44.97;;;22.63;;
48993;SDS011;34804;49.214;12.276;2022-12-10T01:13:43;46.92;;;21.27;;
48993;SDS011;34804;49.214;12.276;2022-12-10T01:16:11;48.70;;;22.15;;
48993;SDS011;34804;49.214;12.276;2022-12-10T01:18:40;46.53;;;21.92;;
48993;SDS011;34804;49.214;12.276;2022-12-10T01:21:07;48.25;;;22.73;;
48993;SDS011;34804;49.214;12.276;2022-12-10T01:23:39;49.20;;;21.98;;
48993;SDS011;34804;49.214;12.276;2022-12-10T01:26:08;54.38;;;25.02;;
48993;SDS011;34804;49.214;12.276;2022-12-10T01:28:38;51.75;;;23.90;;
48993;SDS011;34804;49.214;12.276;2022-12-10T01:31:06;53.58;;;24.55;;
48993;SDS011;34804;49.214;12.276;2022-12-10T01:33:44;52.22;;;25.92;;
48993;SDS011;34804;49.214;12.276;2022-12-10T01:36:12;56.67;;;24.25;;
48993;SDS011;34804;49.214;12.276;2022-12-10T01:38:41;49.90;;;23.48;;
48993;SDS011;34804;49.214;12.276;2022-12-10T01:41:10;46.45;;;22.45;;
48993;SDS011;34804;49.214;12.276;2022-12-10T01:43:48;53.05;;;23.35;;
48993;SDS011;34804;49.214;12.276;2022-12-10T01:46:18;49.80;;;23.05;;
48993;SDS011;34804;49.214;12.276;2022-12-10T01:48:46;50.40;;;22.60;;
48993;SDS011;34804;49.214;12.276;2022-12-10T01:51:13;42.47;;;20.15;;
48993;SDS011;34804;49.214;12.276;2022-12-10T01:53:41;47.63;;;22.73;;
48993;SDS011;34804;49.214;12.276;2022-12-10T01:56:09;53.72;;;22.38;;
48993;SDS011;34804;49.214;12.276;2022-12-10T01:58:37;45.88;;;22.75;;
48993;SDS011;34804;49.214;12.276;2022-12-10T02:01:07;38.42;;;20.20;;
48993;SDS011;34804;49.214;12.276;2022-12-10T02:06:46;42.80;;;19.45;;
48993;SDS011;34804;49.214;12.276;2022-12-10T02:15:27;44.40;;;21.05;;
48993;SDS011;34804;49.214;12.276;2022-12-10T02:18:01;46.00;;;22.02;;
48993;SDS011;34804;49.214;12.276;2022-12-10T02:20:36;50.75;;;21.88;;
48993;SDS011;34804;49.214;12.276;2022-12-10T02:23:24;52.20;;;22.58;;
48993;SDS011;34804;49.214;12.276;2022-12-10T02:26:08;50.33;;;23.23;;
48993;SDS011;34804;49.214;12.276;2022-12-10T02:29:01;53.92;;;23.52;;
48993;SDS011;34804;49.214;12.276;2022-12-10T02:31:55;48.40;;;24.00;;
48993;SDS011;34804;49.214;12.276;2022-12-10T02:34:33;57.10;;;24.10;;
48993;SDS011;34804;49.214;12.276;2022-12-10T02:37:06;58.08;;;24.77;;
48993;SDS011;34804;49.214;12.276;2022-12-10T02:39:40;55.05;;;23.45;;
48993;SDS011;34804;49.214;12.276;2022-12-10T02:42:12;51.17;;;23.58;;
48993;SDS011;34804;49.214;12.276;2022-12-10T02:44:41;53.78;;;22.38;;
48993;SDS011;34804;49.214;12.276;2022-12-10T02:47:10;54.22;;;24.63;;
48993;SDS011;34804;49.214;12.276;2022-12-10T02:49:39;52.40;;;23.60;;
48993;SDS011;34804;49.214;12.276;2022-12-10T02:52:08;48.78;;;21.85;;
48993;SDS011;34804;49.214;12.276;2022-12-10T02:57:31;50.58;;;24.55;;
48993;SDS011;34804;49.214;12.276;2022-12-10T03:00:21;54.83;;;23.65;;
48993;SDS011;34804;49.214;12.276;2022-12-10T03:06:05;53.05;;;24.55;;
48993;SDS011;34804;49.214;12.276;2022-12-10T03:08:15;63.75;;;26.17;;
48993;SDS011;34804;49.214;12.276;2022-12-10T03:10:55;53.20;;;24.00;;
48993;SDS011;34804;49.214;12.276;2022-12-10T03:13:29;50.75;;;23.05;;
48993;SDS011;34804;49.214;12.276;2022-12-10T03:16:02;50.42;;;24.50;;
48993;SDS011;34804;49.214;12.276;2022-12-10T03:18:30;53.17;;;23.92;;
48993;SDS011;34804;49.214;12.276;2022-12-10T03:21:01;54.13;;;23.70;;
48993;SDS011;34804;49.214;12.276;2022-12-10T03:23:31;54.95;;;23.73;;
48993;SDS011;34804;49.214;12.276;2022-12-10T03:26:01;52.83;;;23.48;;
48993;SDS011;34804;49.214;12.276;2022-12-10T03:28:31;52.47;;;24.33;;
48993;SDS011;34804;49.214;12.276;2022-12-10T03:31:04;56.65;;;24.60;;
48993;SDS011;34804;49.214;12.276;2022-12-10T03:33:34;65.07;;;27.80;;
48993;SDS011;34804;49.214;12.276;2022-12-10T03:36:02;55.80;;;23.95;;
48993;SDS011;34804;49.214;12.276;2022-12-10T03:38:30;58.75;;;25.13;;
48993;SDS011;34804;49.214;12.276;2022-12-10T03:40:57;54.50;;;23.48;;
48993;SDS011;34804;49.214;12.276;2022-12-10T03:43:24;57.33;;;25.00;;
48993;SDS011;34804;49.214;12.276;2022-12-10T03:45:51;56.70;;;25.02;;
48993;SDS011;34804;49.214;12.276;2022-12-10T03:48:18;52.90;;;24.17;;
48993;SDS011;34804;49.214;12.276;2022-12-10T03:50:44;53.10;;;23.88;;
48993;SDS011;34804;49.214;12.276;2022-12-10T03:53:11;52.10;;;23.10;;
48993;SDS011;34804;49.214;12.276;2022-12-10T03:55:38;54.65;;;23.20;;
48993;SDS011;34804;49.214;12.276;2022-12-10T03:58:05;54.97;;;24.23;;
48993;SDS011;34804;49.214;12.276;2022-12-10T04:00:31;55.28;;;24.10;;
48993;SDS011;34804;49.214;12.276;2022-12-10T04:02:58;63.03;;;25.83;;
48993;SDS011;34804;49.214;12.276;2022-12-10T04:05:25;53.75;;;23.58;;
48993;SDS011;34804;49.214;12.276;2022-12-10T04:07:52;49.72;;;23.23;;
48993;SDS011;34804;49.214;12.276;2022-12-10T04:10:19;52.47;;;24.52;;
48993;SDS011;34804;49.214;12.276;2022-12-10T04:12:45;55.80;;;25.25;;
48993;SDS011;34804;49.214;12.276;2022-12-10T04:15:32;59.00;;;24.45;;
48993;SDS011;34804;49.214;12.276;2022-12-10T04:18:31;55.45;;;23.63;;
48993;SDS011;34804;49.214;12.276;2022-12-10T04:20:58;55.67;;;25.27;;
48993;SDS011;34804;49.214;12.276;2022-12-10T04:23:43;58.05;;;24.65;;
48993;SDS011;34804;49.214;12.276;2022-12-10T04:26:28;60.70;;;25.00;;
48993;SDS011;34804;49.214;12.276;2022-12-10T04:29:14;53.92;;;22.63;;
48993;SDS011;34804;49.214;12.276;2022-12-10T04:31:40;58.65;;;23.83;;
48993;SDS011;34804;49.214;12.276;2022-12-10T04:34:07;53.90;;;25.90;;
48993;SDS011;34804;49.214;12.276;2022-12-10T04:36:34;45.30;;;22.40;;
48993;SDS011;34804;49.214;12.276;2022-12-10T04:39:01;56.95;;;25.48;;
48993;SDS011;34804;49.214;12.276;2022-12-10T04:41:28;56.63;;;23.45;;
48993;SDS011;34804;49.214;12.276;2022-12-10T04:43:55;54.20;;;24.70;;
48993;SDS011;34804;49.214;12.276;2022-12-10T04:46:22;57.88;;;25.05;;
48993;SDS011;34804;49.214;12.276;2022-12-10T04:48:48;55.25;;;24.83;;
48993;SDS011;34804;49.214;12.276;2022-12-10T04:51:15;54.47;;;23.95;;
48993;SDS011;34804;49.214;12.276;2022-12-10T04:53:42;59.35;;;26.10;;
48993;SDS011;34804;49.214;12.276;2022-12-10T04:56:09;53.53;;;23.42;;
48993;SDS011;34804;49.214;12.276;2022-12-10T04:58:36;51.70;;;23.98;;
48993;SDS011;34804;49.214;12.276;2022-12-10T05:01:03;59.63;;;24.85;;
48993;SDS011;34804;49.214;12.276;2022-12-10T05:03:31;51.88;;;22.83;;
48993;SDS011;34804;49.214;12.276;2022-12-10T05:06:02;54.03;;;24.83;;
48993;SDS011;34804;49.214;12.276;2022-12-10T05:08:34;46.55;;;21.77;;
48993;SDS011;34804;49.214;12.276;2022-12-10T05:11:06;51.20;;;22.73;;
48993;SDS011;34804;49.214;12.276;2022-12-10T05:13:35;50.08;;;22.25;;
48993;SDS011;34804;49.214;12.276;2022-12-10T05:16:02;50.00;;;22.90;;
48993;SDS011;34804;49.214;12.276;2022-12-10T05:18:30;46.53;;;21.38;;
48993;SDS011;34804;49.214;12.276;2022-12-10T05:20:58;44.38;;;20.95;;
48993;SDS011;34804;49.214;12.276;2022-12-10T05:23:25;50.10;;;21.10;;
48993;SDS011;34804;49.214;12.276;2022-12-10T05:26:02;52.70;;;23.15;;
48993;SDS011;34804;49.214;12.276;2022-12-10T05:28:35;45.25;;;21.00;;
48993;SDS011;34804;49.214;12.276;2022-12-10T05:33:42;46.92;;;20.70;;
48993;SDS011;34804;49.214;12.276;2022-12-10T05:36:09;50.08;;;22.13;;
48993;SDS011;34804;49.214;12.276;2022-12-10T05:38:38;52.13;;;23.00;;
48993;SDS011;34804;49.214;12.276;2022-12-10T05:41:11;51.22;;;22.67;;
48993;SDS011;34804;49.214;12.276;2022-12-10T05:43:40;52.92;;;23.13;;
48993;SDS011;34804;49.214;12.276;2022-12-10T05:46:09;51.92;;;22.17;;
48993;SDS011;34804;49.214;12.276;2022-12-10T05:48:45;47.78;;;21.02;;
48993;SDS011;34804;49.214;12.276;2022-12-10T05:51:13;46.03;;;21.27;;
48993;SDS011;34804;49.214;12.276;2022-12-10T05:53:42;57.40;;;22.10;;
48993;SDS011;34804;49.214;12.276;2022-12-10T05:56:10;51.50;;;23.95;;
48993;SDS011;34804;49.214;12.276;2022-12-10T05:58:42;50.37;;;22.73;;
48993;SDS011;34804;49.214;12.276;2022-12-10T06:01:14;51.10;;;23.73;;
48993;SDS011;34804;49.214;12.276;2022-12-10T06:03:43;51.42;;;23.10;;
48993;SDS011;34804;49.214;12.276;2022-12-10T06:06:11;54.05;;;23.50;;
48993;SDS011;34804;49.214;12.276;2022-12-10T06:08:38;55.25;;;23.73;;
48993;SDS011;34804;49.214;12.276;2022-12-10T06:11:06;56.30;;;24.42;;
48993;SDS011;34804;49.214;12.276;2022-12-10T06:13:35;53.17;;;23.73;;
48993;SDS011;34804;49.214;12.276;2022-12-10T06:16:06;56.65;;;25.23;;
48993;SDS011;34804;49.214;12.276;2022-12-10T06:18:35;56.33;;;24.93;;
48993;SDS011;34804;49.214;12.276;2022-12-10T06:21:03;58.65;;;25.08;;
48993;SDS011;34804;49.214;12.276;2022-12-10T06:23:31;54.00;;;24.45;;
48993;SDS011;34804;49.214;12.276;2022-12-10T06:26:02;52.75;;;22.50;;
48993;SDS011;34804;49.214;12.276;2022-12-10T06:28:39;51.13;;;22.65;;
48993;SDS011;34804;49.214;12.276;2022-12-10T06:31:07;57.55;;;24.20;;
48993;SDS011;34804;49.214;12.276;2022-12-10T06:33:34;56.38;;;26.77;;
48993;SDS011;34804;49.214;12.276;2022-12-10T06:36:03;49.13;;;23.08;;
48993;SDS011;34804;49.214;12.276;2022-12-10T06:38:31;60.25;;;25.17;;
48993;SDS011;34804;49.214;12.276;2022-12-10T06:40:59;59.88;;;23.63;;
48993;SDS011;34804;49.214;12.276;2022-12-10T06:43:29;52.67;;;23.75;;
48993;SDS011;34804;49.214;12.276;2022-12-10T06:45:56;59.45;;;24.55;;
48993;SDS011;34804;49.214;12.276;2022-12-10T06:48:22;51.38;;;24.15;;
48993;SDS011;34804;49.214;12.276;2022-12-10T06:50:49;60.75;;;25.85;;
48993;SDS011;34804;49.214;12.276;2022-12-10T06:53:16;53.65;;;24.02;;
48993;SDS011;34804;49.214;12.276;2022-12-10T06:55:43;53.15;;;22.92;;
48993;SDS011;34804;49.214;12.276;2022-12-10T06:58:10;59.95;;;24.13;;
48993;SDS011;34804;49.214;12.276;2022-12-10T07:00:36;53.33;;;25.08;;
48993;SDS011;34804;49.214;12.276;2022-12-10T07:03:03;55.67;;;23.45;;
48993;SDS011;34804;49.214;12.276;2022-12-10T07:05:30;57.10;;;24.38;;
48993;SDS011;34804;49.214;12.276;2022-12-10T07:07:57;47.25;;;21.60;;
48993;SDS011;34804;49.214;12.276;2022-12-10T07:10:24;45.38;;;22.75;;
48993;SDS011;34804;49.214;12.276;2022-12-10T07:12:51;54.53;;;23.00;;
48993;SDS011;34804;49.214;12.276;2022-12-10T07:15:17;53.17;;;23.40;;
48993;SDS011;34804;49.214;12.276;2022-12-10T07:17:44;49.30;;;22.77;;
48993;SDS011;34804;49.214;12.276;2022-12-10T07:20:11;52.90;;;22.52;;
48993;SDS011;34804;49.214;12.276;2022-12-10T07:22:38;56.03;;;25.77;;
48993;SDS011;34804;49.214;12.276;2022-12-10T07:25:05;63.33;;;27.55;;
48993;SDS011;34804;49.214;12.276;2022-12-10T07:27:32;79.03;;;33.42;;
48993;SDS011;34804;49.214;12.276;2022-12-10T07:29:59;86.82;;;35.08;;
48993;SDS011;34804;49.214;12.276;2022-12-10T07:32:28;124.32;;;48.17;;
48993;SDS011;34804;49.214;12.276;2022-12-10T07:34:55;77.75;;;34.60;;
48993;SDS011;34804;49.214;12.276;2022-12-10T07:37:22;107.47;;;46.50;;
48993;SDS011;34804;49.214;12.276;2022-12-10T07:39:49;90.03;;;41.22;;
48993;SDS011;34804;49.214;12.276;2022-12-10T07:42:15;72.47;;;33.75;;
48993;SDS011;34804;49.214;12.276;2022-12-10T07:44:42;58.92;;;26.02;;
48993;SDS011;34804;49.214;12.276;2022-12-10T07:47:14;68.78;;;29.00;;
48993;SDS011;34804;49.214;12.276;2022-12-10T07:49:41;70.43;;;30.42;;
48993;SDS011;34804;49.214;12.276;2022-12-10T07:52:08;57.72;;;26.02;;
48993;SDS011;34804;49.214;12.276;2022-12-10T07:54:35;66.07;;;29.52;;
48993;SDS011;34804;49.214;12.276;2022-12-10T07:57:02;70.65;;;33.75;;
48993;SDS011;34804;49.214;12.276;2022-12-10T07:59:28;69.97;;;35.22;;
48993;SDS011;34804;49.214;12.276;2022-12-10T08:01:56;73.93;;;35.20;;
48993;SDS011;34804;49.214;12.276;2022-12-10T08:04:27;64.70;;;27.95;;
48993;SDS011;34804;49.214;12.276;2022-12-10T08:06:56;58.42;;;27.83;;
48993;SDS011;34804;49.214;12.276;2022-12-10T08:09:23;58.15;;;29.48;;
48993;SDS011;34804;49.214;12.276;2022-12-10T08:11:49;54.53;;;25.08;;
48993;SDS011;34804;49.214;12.276;2022-12-10T08:14:16;58.65;;;24.70;;
48993;SDS011;34804;49.214;12.276;2022-12-10T08:16:43;63.13;;;26.83;;
48993;SDS011;34804;49.214;12.276;2022-12-10T08:19:10;59.25;;;27.15;;
48993;SDS011;34804;49.214;12.276;2022-12-10T08:21:43;57.95;;;26.85;;
48993;SDS011;34804;49.214;12.276;2022-12-10T08:24:09;49.40;;;22.63;;
48993;SDS011;34804;49.214;12.276;2022-12-10T08:26:36;52.72;;;23.10;;
48993;SDS011;34804;49.214;12.276;2022-12-10T08:29:04;57.47;;;24.55;;
48993;SDS011;34804;49.214;12.276;2022-12-10T08:31:31;44.40;;;22.60;;
48993;SDS011;34804;49.214;12.276;2022-12-10T08:34:03;50.38;;;22.92;;
48993;SDS011;34804;49.214;12.276;2022-12-10T08:36:31;57.10;;;26.48;;
48993;SDS011;34804;49.214;12.276;2022-12-10T08:38:58;59.05;;;27.83;;
48993;SDS011;34804;49.214;12.276;2022-12-10T08:41:24;59.63;;;27.40;;
48993;SDS011;34804;49.214;12.276;2022-12-10T08:43:51;55.95;;;24.60;;
48993;SDS011;34804;49.214;12.276;2022-12-10T08:46:19;50.50;;;21.90;;
48993;SDS011;34804;49.214;12.276;2022-12-10T08:48:46;50.85;;;22.90;;
48993;SDS011;34804;49.214;12.276;2022-12-10T08:51:13;46.83;;;21.55;;
48993;SDS011;34804;49.214;12.276;2022-12-10T08:53:42;50.33;;;23.23;;
48993;SDS011;34804;49.214;12.276;2022-12-10T08:56:09;56.88;;;24.25;;
48993;SDS011;34804;49.214;12.276;2022-12-10T08:58:37;48.60;;;22.67;;
48993;SDS011;34804;49.214;12.276;2022-12-10T09:01:08;51.70;;;23.08;;
48993;SDS011;34804;49.214;12.276;2022-12-10T09:03:36;48.22;;;22.35;;
48993;SDS011;34804;49.214;12.276;2022-12-10T09:06:04;50.97;;;24.08;;
48993;SDS011;34804;49.214;12.276;2022-12-10T09:08:33;52.10;;;23.15;;
48993;SDS011;34804;49.214;12.276;2022-12-10T09:11:04;52.88;;;23.40;;
48993;SDS011;34804;49.214;12.276;2022-12-10T09:13:35;49.25;;;23.08;;
48993;SDS011;34804;49.214;12.276;2022-12-10T09:16:02;44.83;;;23.17;;
48993;SDS011;34804;49.214;12.276;2022-12-10T09:18:30;47.78;;;22.17;;
48993;SDS011;34804;49.214;12.276;2022-12-10T09:20:56;47.08;;;22.38;;
48993;SDS011;34804;49.214;12.276;2022-12-10T09:23:24;49.40;;;22.55;;
48993;SDS011;34804;49.214;12.276;2022-12-10T09:25:51;47.10;;;22.58;;
48993;SDS011;34804;49.214;12.276;2022-12-10T09:28:17;50.25;;;22.45;;
48993;SDS011;34804;49.214;12.276;2022-12-10T09:30:44;47.72;;;22.20;;
48993;SDS011;34804;49.214;12.276;2022-12-10T09:33:12;47.33;;;22.50;;
48993;SDS011;34804;49.214;12.276;2022-12-10T09:35:39;50.85;;;23.88;;
48993;SDS011;34804;49.214;12.276;2022-12-10T09:38:07;45.00;;;21.25;;
48993;SDS011;34804;49.214;12.276;2022-12-10T09:40:41;51.40;;;22.73;;
48993;SDS011;34804;49.214;12.276;2022-12-10T09:46:10;46.70;;;22.03;;
48993;SDS011;34804;49.214;12.276;2022-12-10T09:49:05;47.22;;;22.85;;
48993;SDS011;34804;49.214;12.276;2022-12-10T09:51:42;43.05;;;20.45;;
48993;SDS011;34804;49.214;12.276;2022-12-10T09:54:19;46.90;;;22.77;;
48993;SDS011;34804;49.214;12.276;2022-12-10T09:57:20;43.53;;;20.30;;
48993;SDS011;34804;49.214;12.276;2022-12-10T09:59:48;43.38;;;20.60;;
48993;SDS011;34804;49.214;12.276;2022-12-10T10:04:47;49.20;;;23.20;;
48993;SDS011;34804;49.214;12.276;2022-12-10T10:07:26;45.15;;;21.00;;
48993;SDS011;34804;49.214;12.276;2022-12-10T10:09:56;49.78;;;22.70;;
48993;SDS011;34804;49.214;12.276;2022-12-10T10:12:30;46.10;;;21.08;;
48993;SDS011;34804;49.214;12.276;2022-12-10T10:14:59;46.08;;;21.95;;
48993;SDS011;34804;49.214;12.276;2022-12-10T10:17:40;45.10;;;21.92;;
48993;SDS011;34804;49.214;12.276;2022-12-10T10:20:12;47.15;;;22.70;;
48993;SDS011;34804;49.214;12.276;2022-12-10T10:22:39;50.10;;;22.85;;
48993;SDS011;34804;49.214;12.276;2022-12-10T10:25:13;44.47;;;20.98;;
48993;SDS011;34804;49.214;12.276;2022-12-10T10:27:43;47.55;;;22.45;;
48993;SDS011;34804;49.214;12.276;2022-12-10T10:30:14;55.15;;;25.75;;
48993;SDS011;34804;49.214;12.276;2022-12-10T10:32:51;45.85;;;23.05;;
48993;SDS011;34804;49.214;12.276;2022-12-10T10:37:48;45.25;;;20.30;;
48993;SDS011;34804;49.214;12.276;2022-12-10T10:40:22;44.60;;;21.70;;
48993;SDS011;34804;49.214;12.276;2022-12-10T10:42:51;42.75;;;20.48;;
48993;SDS011;34804;49.214;12.276;2022-12-10T10:50:53;39.75;;;19.02;;
48993;SDS011;34804;49.214;12.276;2022-12-10T10:55:51;37.55;;;19.27;;
48993;SDS011;34804;49.214;12.276;2022-12-10T10:58:21;40.20;;;20.35;;
48993;SDS011;34804;49.214;12.276;2022-12-10T11:00:54;38.65;;;20.73;;
48993;SDS011;34804;49.214;12.276;2022-12-10T11:03:44;42.50;;;19.63;;
48993;SDS011;34804;49.214;12.276;2022-12-10T11:06:16;40.33;;;20.08;;
48993;SDS011;34804;49.214;12.276;2022-12-10T11:08:44;37.50;;;19.10;;
48993;SDS011;34804;49.214;12.276;2022-12-10T11:11:16;37.90;;;19.30;;
48993;SDS011;34804;49.214;12.276;2022-12-10T11:13:46;36.63;;;18.08;;
48993;SDS011;34804;49.214;12.276;2022-12-10T11:16:21;40.88;;;19.90;;
48993;SDS011;34804;49.214;12.276;2022-12-10T11:18:51;36.60;;;18.48;;
48993;SDS011;34804;49.214;12.276;2022-12-10T11:21:19;37.75;;;18.67;;
48993;SDS011;34804;49.214;12.276;2022-12-10T11:23:53;38.92;;;19.65;;
48993;SDS011;34804;49.214;12.276;2022-12-10T11:29:29;40.78;;;19.92;;
48993;SDS011;34804;49.214;12.276;2022-12-10T11:37:34;38.35;;;19.63;;
48993;SDS011;34804;49.214;12.276;2022-12-10T11:40:27;38.05;;;19.70;;
48993;SDS011;34804;49.214;12.276;2022-12-10T11:43:04;35.78;;;19.15;;
48993;SDS011;34804;49.214;12.276;2022-12-10T11:48:48;38.13;;;19.15;;
48993;SDS011;34804;49.214;12.276;2022-12-10T11:51:27;36.83;;;19.42;;
48993;SDS011;34804;49.214;12.276;2022-12-10T11:56:44;32.65;;;17.33;;
48993;SDS011;34804;49.214;12.276;2022-12-10T11:59:23;34.60;;;17.17;;
48993;SDS011;34804;49.214;12.276;2022-12-10T12:02:32;32.78;;;17.35;;
48993;SDS011;34804;49.214;12.276;2022-12-10T12:05:31;33.97;;;17.17;;
48993;SDS011;34804;49.214;12.276;2022-12-10T12:16:19;32.92;;;17.38;;
48993;SDS011;34804;49.214;12.276;2022-12-10T12:21:40;35.50;;;17.45;;
48993;SDS011;34804;49.214;12.276;2022-12-10T12:24:12;29.73;;;15.07;;
48993;SDS011;34804;49.214;12.276;2022-12-10T12:27:21;34.75;;;17.88;;
48993;SDS011;34804;49.214;12.276;2022-12-10T12:30:06;41.45;;;19.25;;
48993;SDS011;34804;49.214;12.276;2022-12-10T12:35:17;30.48;;;16.88;;
48993;SDS011;34804;49.214;12.276;2022-12-10T12:37:54;34.15;;;16.33;;
48993;SDS011;34804;49.214;12.276;2022-12-10T12:43:09;31.15;;;16.13;;
48993;SDS011;34804;49.214;12.276;2022-12-10T12:45:40;36.70;;;17.27;;
48993;SDS011;34804;49.214;12.276;2022-12-10T12:48:13;39.17;;;17.65;;
48993;SDS011;34804;49.214;12.276;2022-12-10T12:50:45;29.60;;;15.07;;
48993;SDS011;34804;49.214;12.276;2022-12-10T12:53:16;37.97;;;17.58;;
48993;SDS011;34804;49.214;12.276;2022-12-10T12:55:48;35.78;;;17.30;;
48993;SDS011;34804;49.214;12.276;2022-12-10T12:58:48;38.13;;;20.10;;
48993;SDS011;34804;49.214;12.276;2022-12-10T13:04:47;32.65;;;16.23;;
48993;SDS011;34804;49.214;12.276;2022-12-10T13:09:49;32.95;;;16.88;;
48993;SDS011;34804;49.214;12.276;2022-12-10T13:12:26;39.20;;;18.77;;
48993;SDS011;34804;49.214;12.276;2022-12-10T13:17:30;32.42;;;16.55;;
48993;SDS011;34804;49.214;12.276;2022-12-10T13:20:45;58.95;;;23.25;;
48993;SDS011;34804;49.214;12.276;2022-12-10T13:22:56;42.15;;;19.30;;
48993;SDS011;34804;49.214;12.276;2022-12-10T13:25:38;35.63;;;17.33;;
48993;SDS011;34804;49.214;12.276;2022-12-10T13:31:19;36.00;;;17.13;;
48993;SDS011;34804;49.214;12.276;2022-12-10T13:37:29;31.92;;;16.83;;
48993;SDS011;34804;49.214;12.276;2022-12-10T13:39:59;32.50;;;16.75;;
48993;SDS011;34804;49.214;12.276;2022-12-10T13:42:30;33.53;;;16.40;;
48993;SDS011;34804;49.214;12.276;2022-12-10T13:50:56;35.45;;;17.95;;
48993;SDS011;34804;49.214;12.276;2022-12-10T13:59:28;31.83;;;15.40;;
48993;SDS011;34804;49.214;12.276;2022-12-10T14:08:06;36.10;;;16.65;;
48993;SDS011;34804;49.214;12.276;2022-12-10T14:10:42;35.63;;;17.73;;
48993;SDS011;34804;49.214;12.276;2022-12-10T14:13:10;36.83;;;17.67;;
48993;SDS011;34804;49.214;12.276;2022-12-10T14:15:39;40.13;;;20.10;;
48993;SDS011;34804;49.214;12.276;2022-12-10T14:18:11;42.70;;;20.05;;
48993;SDS011;34804;49.214;12.276;2022-12-10T14:20:42;37.60;;;19.40;;
48993;SDS011;34804;49.214;12.276;2022-12-10T14:26:11;34.97;;;17.02;;
48993;SDS011;34804;49.214;12.276;2022-12-10T14:28:43;34.83;;;16.63;;
48993;SDS011;34804;49.214;12.276;2022-12-10T14:31:20;38.83;;;18.38;;
48993;SDS011;34804;49.214;12.276;2022-12-10T14:33:50;33.65;;;16.33;;
48993;SDS011;34804;49.214;12.276;2022-12-10T14:36:26;34.90;;;17.02;;
48993;SDS011;34804;49.214;12.276;2022-12-10T14:38:55;34.38;;;16.63;;
48993;SDS011;34804;49.214;12.276;2022-12-10T14:41:23;35.78;;;17.38;;
48993;SDS011;34804;49.214;12.276;2022-12-10T14:43:52;31.25;;;15.73;;
48993;SDS011;34804;49.214;12.276;2022-12-10T14:46:27;32.53;;;16.63;;
48993;SDS011;34804;49.214;12.276;2022-12-10T14:48:56;32.15;;;16.48;;
48993;SDS011;34804;49.214;12.276;2022-12-10T14:51:24;32.72;;;15.05;;
48993;SDS011;34804;49.214;12.276;2022-12-10T14:53:53;33.65;;;17.40;;
48993;SDS011;34804;49.214;12.276;2022-12-10T15:01:37;33.08;;;16.95;;
48993;SDS011;34804;49.214;12.276;2022-12-10T15:04:12;36.60;;;17.58;;
48993;SDS011;34804;49.214;12.276;2022-12-10T15:06:49;35.45;;;16.40;;
48993;SDS011;34804;49.214;12.276;2022-12-10T15:09:21;34.05;;;18.38;;
48993;SDS011;34804;49.214;12.276;2022-12-10T15:11:52;36.15;;;17.90;;
48993;SDS011;34804;49.214;12.276;2022-12-10T15:14:20;34.20;;;16.90;;
48993;SDS011;34804;49.214;12.276;2022-12-10T15:16:48;34.03;;;16.65;;
48993;SDS011;34804;49.214;12.276;2022-12-10T15:19:17;36.78;;;17.80;;
48993;SDS011;34804;49.214;12.276;2022-12-10T15:21:45;37.08;;;17.88;;
48993;SDS011;34804;49.214;12.276;2022-12-10T15:24:55;34.30;;;16.10;;
48993;SDS011;34804;49.214;12.276;2022-12-10T15:27:16;34.17;;;17.05;;
48993;SDS011;34804;49.214;12.276;2022-12-10T15:29:44;33.40;;;16.52;;
48993;SDS011;34804;49.214;12.276;2022-12-10T15:32:24;33.10;;;16.90;;
48993;SDS011;34804;49.214;12.276;2022-12-10T15:34:54;40.65;;;20.02;;
48993;SDS011;34804;49.214;12.276;2022-12-10T15:37:27;39.13;;;19.23;;
48993;SDS011;34804;49.214;12.276;2022-12-10T15:40:04;41.15;;;19.38;;
48993;SDS011;34804;49.214;12.276;2022-12-10T15:43:23;37.03;;;17.80;;
48993;SDS011;34804;49.214;12.276;2022-12-10T15:45:55;46.05;;;20.83;;
48993;SDS011;34804;49.214;12.276;2022-12-10T15:48:24;44.10;;;21.92;;
48993;SDS011;34804;49.214;12.276;2022-12-10T15:50:54;41.85;;;20.15;;
48993;SDS011;34804;49.214;12.276;2022-12-10T15:53:26;44.80;;;20.50;;
48993;SDS011;34804;49.214;12.276;2022-12-10T15:56:02;42.55;;;20.38;;
48993;SDS011;34804;49.214;12.276;2022-12-10T15:58:29;43.17;;;20.13;;
48993;SDS011;34804;49.214;12.276;2022-12-10T16:00:56;45.90;;;20.83;;
48993;SDS011;34804;49.214;12.276;2022-12-10T16:03:23;40.10;;;20.10;;
48993;SDS011;34804;49.214;12.276;2022-12-10T16:05:52;47.47;;;20.20;;
48993;SDS011;34804;49.214;12.276;2022-12-10T16:08:23;45.45;;;22.65;;
48993;SDS011;34804;49.214;12.276;2022-12-10T16:11:01;45.03;;;21.35;;
48993;SDS011;34804;49.214;12.276;2022-12-10T16:13:35;45.78;;;21.05;;
48993;SDS011;34804;49.214;12.276;2022-12-10T16:16:07;43.45;;;21.15;;
48993;SDS011;34804;49.214;12.276;2022-12-10T16:18:36;46.38;;;21.45;;
48993;SDS011;34804;49.214;12.276;2022-12-10T16:21:03;46.55;;;22.35;;